Time;durP1;ratioP1;P1;durP2;ratioP2;P2;SDS_P1;SDS_P2;PMS_P1;PMS_P2;Temp;Humidity;BMP_temperature;BMP_pressure;BME280_temperature;BME280_humidity;BME280_pressure;Samples;Min_cycle;Max_cycle;Signal;HPM_P1;HPM_P2
2021/06/27 00:01:12;;;;;;;12.33;11.33;;;22.60;63.60;;;;;;5117302;28;20888;-70
2021/06/27 00:03:39;;;;;;;11.50;10.60;;;22.60;63.50;;;;;;5117318;28;20442;-70
2021/06/27 00:06:06;;;;;;;11.00;10.00;;;22.60;63.40;;;;;;5116966;28;20834;-70
2021/06/27 00:08:33;;;;;;;10.60;9.70;;;22.50;63.30;;;;;;5117220;28;20454;-70
2021/06/27 00:11:00;;;;;;;11.70;10.70;;;22.40;63.20;;;;;;5117100;28;20459;-71
2021/06/27 00:13:28;;;;;;;12.20;11.07;;;22.40;63.10;;;;;;5117136;28;20445;-70
2021/06/27 00:15:57;;;;;;;12.83;11.53;;;22.30;63.10;;;;;;5117089;28;20442;-70
2021/06/27 00:18:26;;;;;;;12.40;11.40;;;22.30;63.30;;;;;;5116698;28;20991;-70
2021/06/27 00:20:56;;;;;;;12.30;11.20;;;22.20;63.50;;;;;;5116786;28;20478;-70
2021/06/27 00:23:25;;;;;;;12.77;11.47;;;22.20;63.60;;;;;;5116906;28;20777;-70
2021/06/27 00:25:53;;;;;;;11.23;10.33;;;22.20;63.80;;;;;;5116609;28;20442;-70
2021/06/27 00:28:21;;;;;;;12.33;11.23;;;22.10;63.70;;;;;;5116487;28;20821;-70
2021/06/27 00:30:49;;;;;;;13.10;11.90;;;22.10;63.90;;;;;;5116705;28;20463;-70
2021/06/27 00:33:18;;;;;;;12.40;11.13;;;22.00;64.10;;;;;;5116783;28;20492;-70
2021/06/27 00:35:45;;;;;;;11.97;11.07;;;22.00;64.30;;;;;;5116394;28;20442;-70
2021/06/27 00:38:12;;;;;;;12.10;11.00;;;22.00;64.40;;;;;;5116227;28;20865;-70
2021/06/27 00:40:39;;;;;;;14.27;12.10;;;21.90;64.60;;;;;;5116564;28;20459;-71
2021/06/27 00:43:07;;;;;;;12.10;11.10;;;21.90;64.80;;;;;;5116558;28;20439;-70
2021/06/27 00:45:35;;;;;;;14.03;12.70;;;21.90;64.90;;;;;;5116542;28;20500;-70
2021/06/27 00:48:02;;;;;;;12.53;11.43;;;21.80;64.80;;;;;;5116459;28;20447;-70
2021/06/27 00:50:33;;;;;;;13.20;11.93;;;21.80;64.90;;;;;;5116350;28;20451;-70
2021/06/27 00:53:00;;;;;;;11.90;10.90;;;21.70;64.70;;;;;;5116432;28;20431;-70
2021/06/27 00:55:27;;;;;;;11.60;10.60;;;21.70;64.90;;;;;;5116328;28;20488;-70
2021/06/27 00:57:55;;;;;;;12.10;11.10;;;21.60;65.00;;;;;;5116216;28;20497;-70
2021/06/27 01:00:24;;;;;;;13.47;11.33;;;21.60;65.30;;;;;;5116128;28;20451;-70
2021/06/27 01:02:51;;;;;;;12.63;11.47;;;21.60;65.60;;;;;;5116255;28;20434;-70
2021/06/27 01:05:20;;;;;;;14.07;12.77;;;21.60;65.70;;;;;;5116069;28;20450;-70
2021/06/27 01:07:48;;;;;;;13.30;12.30;;;21.60;65.70;;;;;;5116093;28;20435;-70
2021/06/27 01:10:15;;;;;;;14.80;13.40;;;21.50;65.70;;;;;;5115966;28;20450;-71
2021/06/27 01:12:42;;;;;;;13.57;12.27;;;21.50;65.80;;;;;;5116025;28;20443;-70
2021/06/27 01:15:11;;;;;;;14.60;13.30;;;21.50;66.00;;;;;;5115638;28;20807;-70
2021/06/27 01:17:39;;;;;;;13.20;11.90;;;21.40;65.90;;;;;;5116054;28;20478;-70
2021/06/27 01:20:09;;;;;;;12.60;11.60;;;21.40;65.80;;;;;;5115461;28;20937;-70
2021/06/27 01:22:37;;;;;;;13.63;12.33;;;21.30;65.50;;;;;;5115993;28;20491;-70
2021/06/27 01:25:05;;;;;;;11.50;10.50;;;21.30;65.50;;;;;;5115420;28;20808;-70
2021/06/27 01:27:32;;;;;;;11.20;10.20;;;21.30;65.50;;;;;;5115711;28;20446;-70
2021/06/27 01:29:59;;;;;;;11.90;10.80;;;21.20;65.40;;;;;;5115651;28;20442;-70
2021/06/27 01:32:26;;;;;;;12.87;11.63;;;21.20;65.50;;;;;;5115542;28;20466;-70
2021/06/27 01:34:53;;;;;;;11.80;10.80;;;21.20;65.70;;;;;;5115176;28;20932;-70
2021/06/27 01:37:19;;;;;;;12.60;11.50;;;21.10;65.80;;;;;;5115355;28;20484;-70
2021/06/27 01:39:47;;;;;;;11.73;10.37;;;21.10;65.90;;;;;;5114744;28;20447;-70
2021/06/27 01:42:14;;;;;;;11.10;10.10;;;21.00;65.80;;;;;;5115306;28;20467;-70
2021/06/27 01:44:41;;;;;;;10.97;9.97;;;21.00;66.00;;;;;;5115338;28;20443;-70
2021/06/27 01:47:08;;;;;;;11.63;10.33;;;21.00;66.10;;;;;;5115528;28;20435;-70
2021/06/27 01:49:34;;;;;;;10.70;9.77;;;20.90;66.00;;;;;;5115252;28;20446;-70
2021/06/27 01:52:01;;;;;;;12.57;11.20;;;20.90;66.20;;;;;;5115149;28;20480;-70
2021/06/27 01:54:28;;;;;;;10.73;9.77;;;20.80;66.20;;;;;;5115186;28;20447;-70
2021/06/27 01:56:56;;;;;;;11.90;10.40;;;20.80;66.60;;;;;;5115305;28;20447;-70
2021/06/27 01:59:23;;;;;;;12.43;11.13;;;20.80;66.90;;;;;;5115085;28;20439;-70
2021/06/27 02:01:49;;;;;;;15.63;11.17;;;20.80;67.00;;;;;;5115007;28;20458;-70
2021/06/27 02:04:17;;;;;;;12.60;11.33;;;20.70;67.00;;;;;;5115233;28;20450;-70
2021/06/27 02:06:44;;;;;;;11.57;10.57;;;20.60;67.10;;;;;;5114917;28;20453;-70
2021/06/27 02:09:14;;;;;;;12.67;10.77;;;20.60;67.50;;;;;;5115201;28;20446;-70
2021/06/27 02:11:41;;;;;;;12.23;9.40;;;20.60;67.30;;;;;;5114796;28;20466;-70
2021/06/27 02:14:10;;;;;;;11.00;10.00;;;20.60;67.10;;;;;;5114802;28;20445;-70
2021/06/27 02:16:37;;;;;;;12.60;11.30;;;20.50;67.20;;;;;;5115053;28;20414;-70
2021/06/27 02:19:04;;;;;;;9.93;9.03;;;20.50;67.30;;;;;;5114429;28;20501;-70
2021/06/27 02:21:33;;;;;;;11.13;10.23;;;20.50;67.30;;;;;;5114639;28;20470;-70
2021/06/27 02:24:01;;;;;;;10.97;9.97;;;20.50;67.40;;;;;;5114634;28;20447;-70
2021/06/27 02:26:28;;;;;;;12.07;11.07;;;20.50;67.50;;;;;;5114601;28;20533;-70
2021/06/27 02:28:57;;;;;;;11.40;10.40;;;20.50;67.80;;;;;;5114581;28;20441;-70
2021/06/27 02:31:27;;;;;;;12.67;11.40;;;20.50;67.90;;;;;;5114488;28;20497;-70
2021/06/27 02:33:54;;;;;;;15.30;12.00;;;20.40;67.90;;;;;;5114418;28;20454;-70
2021/06/27 02:36:21;;;;;;;12.50;11.40;;;20.40;68.30;;;;;;5114434;28;20445;-70
2021/06/27 02:38:47;;;;;;;13.97;12.73;;;20.40;68.40;;;;;;5114311;28;20477;-70
2021/06/27 02:41:14;;;;;;;13.80;12.33;;;20.40;68.50;;;;;;5114347;28;20470;-70
2021/06/27 02:43:41;;;;;;;12.23;10.67;;;20.30;68.50;;;;;;5114283;28;20442;-70
2021/06/27 02:46:08;;;;;;;13.97;10.93;;;20.30;68.30;;;;;;5113953;28;20932;-70
2021/06/27 02:48:37;;;;;;;13.33;11.50;;;20.30;68.10;;;;;;5114217;28;20446;-70
2021/06/27 02:51:04;;;;;;;12.10;10.90;;;20.20;68.00;;;;;;5114001;28;20559;-70
2021/06/27 02:53:31;;;;;;;12.87;11.73;;;20.20;67.90;;;;;;5114131;28;20451;-70
2021/06/27 02:56:10;;;;;;;12.03;10.93;;;20.20;68.00;;;;;;5114141;28;20466;-70
2021/06/27 02:58:41;;;;;;;11.53;10.53;;;20.20;68.20;;;;;;5113768;28;20466;-69
2021/06/27 03:01:09;;;;;;;11.90;10.80;;;20.20;68.40;;;;;;5114189;28;20550;-69
2021/06/27 03:03:38;;;;;;;12.57;11.37;;;20.10;68.30;;;;;;5114126;28;20442;-70
2021/06/27 03:06:05;;;;;;;13.20;12.00;;;20.10;68.50;;;;;;5114009;28;20438;-70
2021/06/27 03:08:32;;;;;;;13.30;12.00;;;20.10;68.80;;;;;;5114057;28;20443;-70
2021/06/27 03:11:00;;;;;;;13.10;11.90;;;20.10;69.00;;;;;;5113830;28;20964;-70
2021/06/27 03:13:27;;;;;;;13.00;11.70;;;20.10;69.20;;;;;;5114797;28;20445;-70
2021/06/27 03:15:54;;;;;;;14.23;12.77;;;20.00;69.20;;;;;;5113939;28;20426;-70
2021/06/27 03:18:21;;;;;;;14.23;12.63;;;20.00;69.30;;;;;;5113799;28;20478;-70
2021/06/27 03:20:49;;;;;;;15.10;13.53;;;20.00;69.50;;;;;;5113678;28;20479;-71
2021/06/27 03:23:16;;;;;;;12.53;11.33;;;20.00;69.50;;;;;;5113556;28;21049;-70
2021/06/27 03:25:43;;;;;;;14.70;11.60;;;20.00;69.50;;;;;;5113829;28;20466;-70
2021/06/27 03:28:09;;;;;;;12.80;9.87;;;20.00;69.10;;;;;;5113758;28;20441;-70
2021/06/27 03:30:36;;;;;;;12.37;10.00;;;20.00;68.90;;;;;;5113441;28;20972;-69
2021/06/27 03:33:03;;;;;;;15.20;11.03;;;20.00;68.90;;;;;;5114005;28;20449;-69
2021/06/27 03:35:30;;;;;;;14.73;11.00;;;20.00;68.80;;;;;;5113698;28;20450;-70
2021/06/27 03:38:05;;;;;;;15.17;10.07;;;20.00;68.90;;;;;;5113615;28;20548;-70
2021/06/27 03:40:31;;;;;;;13.33;11.10;;;20.00;69.10;;;;;;5113642;28;20465;-71
2021/06/27 03:43:00;;;;;;;13.23;11.33;;;20.00;69.30;;;;;;5113689;28;20852;-70
2021/06/27 03:45:28;;;;;;;13.03;11.17;;;20.00;69.80;;;;;;5113673;28;20542;-69
2021/06/27 03:47:54;;;;;;;16.73;11.93;;;20.00;70.20;;;;;;5113622;28;20434;-69
2021/06/27 03:50:21;;;;;;;15.50;13.00;;;20.10;70.60;;;;;;5113557;28;20446;-69
2021/06/27 03:52:49;;;;;;;18.20;14.20;;;20.10;70.90;;;;;;5113812;28;20438;-70
2021/06/27 03:55:19;;;;;;;15.67;13.50;;;20.10;71.20;;;;;;5113550;28;20443;-69
2021/06/27 03:57:46;;;;;;;12.67;11.43;;;20.10;71.30;;;;;;5114088;28;20458;-69
2021/06/27 04:00:13;;;;;;;15.20;12.60;;;20.10;71.60;;;;;;5113503;28;20450;-69
2021/06/27 04:02:40;;;;;;;15.47;12.60;;;20.20;71.90;;;;;;5116503;28;20458;-70
2021/06/27 04:05:09;;;;;;;14.67;13.17;;;20.20;72.30;;;;;;5117396;28;20435;-70
2021/06/27 04:07:35;;;;;;;14.30;12.83;;;20.30;72.90;;;;;;5116933;28;20863;-70
2021/06/27 04:10:03;;;;;;;13.33;12.23;;;20.30;73.00;;;;;;5117247;28;20442;-69
2021/06/27 04:12:31;;;;;;;13.93;12.63;;;20.30;73.20;;;;;;5117427;28;20463;-70
2021/06/27 04:14:58;;;;;;;14.63;13.30;;;20.40;73.60;;;;;;5116868;28;20940;-70
2021/06/27 04:17:25;;;;;;;15.33;14.00;;;20.40;74.00;;;;;;5117144;28;20446;-69
2021/06/27 04:19:52;;;;;;;15.23;13.67;;;20.40;74.10;;;;;;5116803;28;20569;-69
2021/06/27 04:22:20;;;;;;;14.87;13.40;;;20.40;74.10;;;;;;5116681;28;20554;-70
2021/06/27 04:24:46;;;;;;;16.03;14.50;;;20.50;74.30;;;;;;5117004;28;20447;-69
2021/06/27 04:27:13;;;;;;;14.00;12.77;;;20.50;74.30;;;;;;5116936;28;20450;-69
2021/06/27 04:29:41;;;;;;;16.03;14.37;;;20.50;74.60;;;;;;5117000;28;20442;-69
2021/06/27 04:32:08;;;;;;;15.53;14.13;;;20.50;74.70;;;;;;5116684;28;20459;-69
2021/06/27 04:34:35;;;;;;;15.93;14.50;;;20.50;76.00;;;;;;5116841;28;20438;-69
2021/06/27 04:37:02;;;;;;;15.87;14.47;;;20.50;75.30;;;;;;5116734;28;20513;-69
2021/06/27 04:39:29;;;;;;;16.80;15.27;;;20.50;75.40;;;;;;5116639;28;20474;-69
2021/06/27 04:41:55;;;;;;;15.17;13.77;;;20.50;75.40;;;;;;5116560;28;20463;-69
2021/06/27 04:44:22;;;;;;;14.90;13.60;;;20.60;75.80;;;;;;5116641;28;20435;-69
2021/06/27 04:46:50;;;;;;;14.07;12.77;;;20.60;76.10;;;;;;5116241;28;20817;-69
2021/06/27 04:49:17;;;;;;;15.57;13.90;;;20.70;76.30;;;;;;5116535;28;20516;-69
2021/06/27 04:51:44;;;;;;;14.80;13.40;;;20.60;76.20;;;;;;5116074;28;20996;-69
2021/06/27 04:54:10;;;;;;;20.60;14.53;;;20.70;76.00;;;;;;5116397;28;20438;-69
2021/06/27 04:56:37;;;;;;;14.20;12.90;;;20.70;75.90;;;;;;5116319;28;20951;-69
2021/06/27 04:59:04;;;;;;;13.03;11.93;;;20.70;75.90;;;;;;5116232;28;20848;-70
2021/06/27 05:01:31;;;;;;;14.60;13.20;;;20.80;75.90;;;;;;5116202;28;20465;-70
2021/06/27 05:03:59;;;;;;;15.80;14.40;;;20.80;76.00;;;;;;5116472;28;20439;-70
2021/06/27 05:06:26;;;;;;;15.33;13.83;;;20.80;75.70;;;;;;5115814;28;20439;-70
2021/06/27 05:08:53;;;;;;;14.63;13.13;;;20.90;76.00;;;;;;5115806;28;20857;-69
2021/06/27 05:11:19;;;;;;;14.93;13.30;;;20.90;76.00;;;;;;5116546;28;20459;-69
2021/06/27 05:13:47;;;;;;;15.07;12.80;;;20.90;75.90;;;;;;5114767;28;20434;-69
2021/06/27 05:16:14;;;;;;;13.97;12.67;;;21.00;75.30;;;;;;5115978;28;20473;-69
2021/06/27 05:18:40;;;;;;;14.07;12.67;;;21.00;75.60;;;;;;5115844;28;20485;-69
2021/06/27 05:21:08;;;;;;;13.93;12.60;;;21.10;75.70;;;;;;5115461;28;20478;-69
2021/06/27 05:23:35;;;;;;;15.57;13.70;;;21.10;75.70;;;;;;5115815;28;20448;-69
2021/06/27 05:26:02;;;;;;;14.53;13.20;;;21.10;75.40;;;;;;5115476;28;20994;-69
2021/06/27 05:28:30;;;;;;;12.80;11.20;;;21.20;75.40;;;;;;5115387;28;20928;-67
2021/06/27 05:30:57;;;;;;;13.10;11.97;;;21.30;71.00;;;;;;5115326;28;20816;-67
2021/06/27 05:33:24;;;;;;;12.53;11.30;;;21.40;71.70;;;;;;5115649;28;20443;-67
2021/06/27 05:35:50;;;;;;;13.00;11.77;;;21.50;71.40;;;;;;5115610;28;20439;-67
2021/06/27 05:38:18;;;;;;;14.07;12.80;;;21.60;70.10;;;;;;5115512;28;20506;-67
2021/06/27 05:40:45;;;;;;;12.37;11.20;;;21.70;70.10;;;;;;5115439;28;20463;-67
2021/06/27 05:43:12;;;;;;;13.10;11.83;;;21.80;69.80;;;;;;5115789;28;20447;-67
2021/06/27 05:45:38;;;;;;;12.27;11.27;;;22.00;69.40;;;;;;5115664;28;20792;-67
2021/06/27 05:48:06;;;;;;;12.97;11.97;;;22.10;68.30;;;;;;5115131;28;20446;-67
2021/06/27 05:50:33;;;;;;;14.77;13.37;;;22.30;67.30;;;;;;5115254;28;20465;-67
2021/06/27 05:53:00;;;;;;;12.20;11.17;;;22.30;67.40;;;;;;5114929;28;20979;-67
2021/06/27 05:55:28;;;;;;;12.47;11.30;;;22.50;66.90;;;;;;5115277;28;20469;-69
2021/06/27 05:57:54;;;;;;;13.43;12.13;;;22.60;66.80;;;;;;5115222;28;20419;-69
2021/06/27 06:00:21;;;;;;;12.10;11.00;;;22.70;66.40;;;;;;5114929;28;20483;-69
2021/06/27 06:02:48;;;;;;;12.83;11.53;;;22.80;65.30;;;;;;5115037;28;20451;-70
2021/06/27 06:05:15;;;;;;;12.60;11.50;;;22.80;65.30;;;;;;5115047;28;20443;-70
2021/06/27 06:07:42;;;;;;;11.63;10.43;;;22.90;65.40;;;;;;5114989;28;20441;-67
2021/06/27 06:10:09;;;;;;;12.67;10.80;;;23.10;64.90;;;;;;5114922;28;20446;-68
2021/06/27 06:12:37;;;;;;;12.97;11.77;;;23.10;64.40;;;;;;5114534;28;20459;-67
2021/06/27 06:15:05;;;;;;;12.30;11.10;;;23.20;64.20;;;;;;5115628;28;20805;-68
2021/06/27 06:17:32;;;;;;;12.40;11.40;;;23.30;63.60;;;;;;5114792;28;20439;-68
2021/06/27 06:19:58;;;;;;;11.63;10.73;;;23.40;63.00;;;;;;5114628;28;20489;-68
2021/06/27 06:22:25;;;;;;;12.60;11.40;;;23.50;62.40;;;;;;5114373;28;21002;-68
2021/06/27 06:24:52;;;;;;;11.70;10.70;;;23.60;62.30;;;;;;5114250;28;20450;-68
2021/06/27 06:27:18;;;;;;;11.80;10.80;;;23.70;61.70;;;;;;5114605;28;20450;-68
2021/06/27 06:29:46;;;;;;;13.67;12.30;;;23.80;61.60;;;;;;5114236;28;20434;-68
2021/06/27 06:32:13;;;;;;;12.40;11.17;;;23.80;61.30;;;;;;5114438;28;20463;-68
2021/06/27 06:34:40;;;;;;;11.73;10.80;;;23.80;60.80;;;;;;5114548;28;20450;-68
2021/06/27 06:37:07;;;;;;;11.60;10.50;;;23.90;61.40;;;;;;5114469;28;20446;-68
2021/06/27 06:39:34;;;;;;;11.87;10.87;;;23.90;61.30;;;;;;5114003;28;20474;-68
2021/06/27 06:42:00;;;;;;;10.90;10.00;;;24.00;61.50;;;;;;5114597;28;20463;-68
2021/06/27 06:44:27;;;;;;;10.80;9.90;;;24.00;61.50;;;;;;5114327;28;20450;-68
2021/06/27 06:46:55;;;;;;;11.80;9.70;;;24.00;61.00;;;;;;5114251;28;20450;-68
2021/06/27 06:49:22;;;;;;;11.27;10.17;;;24.00;60.20;;;;;;5114276;28;20431;-68
2021/06/27 06:51:48;;;;;;;10.73;9.80;;;24.10;60.40;;;;;;5114108;28;20470;-68
2021/06/27 06:54:15;;;;;;;10.87;9.93;;;24.10;60.40;;;;;;5114090;28;20454;-68
2021/06/27 06:56:42;;;;;;;11.30;10.20;;;24.20;60.50;;;;;;5114121;28;20512;-68
2021/06/27 06:59:09;;;;;;;11.57;10.47;;;24.20;60.80;;;;;;5114015;28;20471;-68
2021/06/27 07:01:35;;;;;;;10.90;9.87;;;24.20;60.70;;;;;;5114046;28;20458;-68
2021/06/27 07:04:03;;;;;;;11.27;10.23;;;24.20;60.40;;;;;;5114101;28;20439;-68
2021/06/27 07:06:30;;;;;;;11.57;9.50;;;24.20;60.20;;;;;;5114024;28;20446;-68
2021/06/27 07:08:57;;;;;;;11.13;9.93;;;24.20;60.30;;;;;;5113987;28;20485;-68
2021/06/27 07:11:24;;;;;;;10.43;9.67;;;24.20;60.70;;;;;;5113833;28;20463;-68
2021/06/27 07:13:50;;;;;;;11.03;9.90;;;24.30;61.10;;;;;;5113942;28;20450;-68
2021/06/27 07:16:17;;;;;;;10.00;9.20;;;24.20;61.10;;;;;;5113761;28;20936;-68
2021/06/27 07:18:44;;;;;;;10.57;9.53;;;24.30;61.00;;;;;;5113828;28;20451;-68
2021/06/27 07:21:12;;;;;;;11.63;10.67;;;24.30;61.60;;;;;;5113420;28;20466;-68
2021/06/27 07:23:38;;;;;;;12.80;11.57;;;24.40;61.60;;;;;;5113976;28;20446;-68
2021/06/27 07:26:05;;;;;;;11.20;10.10;;;24.50;61.30;;;;;;5113544;28;20879;-68
2021/06/27 07:28:32;;;;;;;10.23;9.33;;;24.60;60.00;;;;;;5113761;28;20554;-68
2021/06/27 07:30:59;;;;;;;10.70;9.80;;;24.70;59.80;;;;;;5111047;28;20481;-68
2021/06/27 07:33:26;;;;;;;10.20;9.30;;;24.80;60.10;;;;;;5092416;28;20470;-68
2021/06/27 07:35:53;;;;;;;11.10;10.00;;;24.90;59.40;;;;;;5092277;28;20961;-68
2021/06/27 07:38:21;;;;;;;8.50;7.80;;;25.10;59.10;;;;;;5097425;28;20431;-68
2021/06/27 07:40:48;;;;;;;12.10;11.00;;;25.30;59.10;;;;;;5097212;28;20487;-68
2021/06/27 07:43:14;;;;;;;9.97;9.10;;;25.50;58.80;;;;;;5097337;28;20451;-68
2021/06/27 07:45:42;;;;;;;10.80;9.80;;;25.70;58.00;;;;;;5097354;28;20431;-68
2021/06/27 07:48:10;;;;;;;10.20;9.30;;;25.90;57.50;;;;;;5097539;28;20443;-68
2021/06/27 07:50:36;;;;;;;10.77;9.63;;;26.10;57.40;;;;;;5097163;28;20451;-68
2021/06/27 07:53:03;;;;;;;10.20;9.40;;;26.20;56.00;;;;;;5096860;28;20837;-68
2021/06/27 07:55:32;;;;;;;11.63;10.50;;;26.30;56.00;;;;;;5097095;28;20446;-68
2021/06/27 07:57:58;;;;;;;10.50;9.60;;;26.40;55.80;;;;;;5096787;28;20956;-68
2021/06/27 08:00:25;;;;;;;11.20;10.10;;;26.50;55.80;;;;;;5096925;28;20460;-69
2021/06/27 08:02:52;;;;;;;10.20;9.40;;;26.70;55.40;;;;;;5096989;28;20519;-68
2021/06/27 08:05:19;;;;;;;10.30;9.40;;;26.80;55.00;;;;;;5096975;28;20443;-68
2021/06/27 08:07:45;;;;;;;9.30;8.53;;;27.00;55.70;;;;;;5096962;28;20447;-68
2021/06/27 08:10:12;;;;;;;10.10;9.07;;;27.20;56.10;;;;;;5096590;28;20773;-68
2021/06/27 08:12:41;;;;;;;8.97;8.27;;;27.50;55.20;;;;;;5096520;28;20475;-68
2021/06/27 08:15:10;;;;;;;9.97;9.17;;;27.70;54.00;;;;;;5096494;28;20885;-68
2021/06/27 08:17:37;;;;;;;9.47;8.77;;;27.90;54.10;;;;;;5096665;28;20902;-69
2021/06/27 08:20:05;;;;;;;9.50;8.77;;;28.00;52.50;;;;;;5096453;28;20490;-69
2021/06/27 08:22:32;;;;;;;8.43;7.83;;;28.30;52.00;;;;;;5096678;28;20467;-69
2021/06/27 08:24:58;;;;;;;8.00;7.40;;;28.30;51.30;;;;;;5096725;28;20444;-68
2021/06/27 08:27:25;;;;;;;8.97;8.10;;;28.40;51.30;;;;;;5096600;28;20514;-70
2021/06/27 08:29:53;;;;;;;9.17;8.47;;;28.50;51.90;;;;;;5096706;28;20420;-69
2021/06/27 08:32:20;;;;;;;8.93;8.30;;;28.70;52.20;;;;;;5096309;28;20969;-69
2021/06/27 08:34:46;;;;;;;8.50;7.70;;;28.80;51.50;;;;;;5096396;28;20459;-69
2021/06/27 08:37:13;;;;;;;7.90;7.40;;;29.00;51.10;;;;;;5096572;28;20805;-68
2021/06/27 08:39:40;;;;;;;8.57;7.70;;;29.10;50.20;;;;;;5096481;28;20483;-69
2021/06/27 08:42:07;;;;;;;8.17;7.60;;;29.30;49.00;;;;;;5095857;28;20962;-69
2021/06/27 08:44:35;;;;;;;8.70;8.10;;;29.40;48.60;;;;;;5096084;28;20925;-69
2021/06/27 08:47:04;;;;;;;8.80;8.03;;;29.40;48.70;;;;;;5095979;28;20447;-69
2021/06/27 08:49:32;;;;;;;7.97;7.37;;;29.50;48.80;;;;;;5096186;28;20443;-69
2021/06/27 08:51:59;;;;;;;8.30;7.70;;;29.70;48.90;;;;;;5096138;28;20470;-69
2021/06/27 08:54:28;;;;;;;8.33;7.73;;;29.90;47.80;;;;;;5095865;28;20477;-69
2021/06/27 08:56:56;;;;;;;8.10;7.50;;;30.00;47.10;;;;;;5095870;28;21032;-69
2021/06/27 08:59:22;;;;;;;8.83;8.03;;;30.00;47.10;;;;;;5095741;28;20472;-69
2021/06/27 09:01:49;;;;;;;8.37;7.77;;;30.20;46.30;;;;;;5095992;28;20462;-69
2021/06/27 09:04:18;;;;;;;8.30;7.80;;;30.20;46.30;;;;;;5095953;28;20443;-70
2021/06/27 09:06:45;;;;;;;6.93;6.43;;;30.30;46.00;;;;;;5095865;28;20937;-69
2021/06/27 09:09:16;;;;;;;7.27;6.87;;;30.20;45.50;;;;;;5095856;28;20454;-69
2021/06/27 09:12:01;;;;;;;7.77;7.20;;;30.40;45.70;;;;;;5096073;28;20486;-69
2021/06/27 09:14:29;;;;;;;7.70;7.07;;;30.50;46.70;;;;;;5095813;28;20435;-69
2021/06/27 09:17:07;;;;;;;8.30;7.70;;;30.70;46.10;;;;;;5095814;28;20773;-69
2021/06/27 09:19:55;;;;;;;7.97;7.37;;;31.00;44.30;;;;;;5095589;28;20487;-69
2021/06/27 09:22:24;;;;;;;7.97;7.47;;;31.20;43.30;;;;;;5095205;28;20879;-69
2021/06/27 09:24:51;;;;;;;8.47;7.77;;;31.30;43.50;;;;;;5095573;28;20443;-69
2021/06/27 09:27:19;;;;;;;8.17;7.57;;;31.50;43.10;;;;;;5095469;28;20443;-70
2021/06/27 09:29:47;;;;;;;8.23;7.63;;;31.50;40.70;;;;;;5095580;28;20436;-68
2021/06/27 09:32:17;;;;;;;7.63;7.13;;;31.40;41.50;;;;;;5095262;28;20466;-68
2021/06/27 09:34:46;;;;;;;7.77;7.17;;;31.30;42.10;;;;;;5095557;28;20428;-68
2021/06/27 09:37:14;;;;;;;7.60;7.10;;;31.30;43.00;;;;;;5094903;28;20535;-68
2021/06/27 09:39:54;;;;;;;8.40;7.80;;;31.40;42.00;;;;;;5095173;28;20456;-68
2021/06/27 09:42:21;;;;;;;7.37;6.57;;;31.50;41.50;;;;;;5095323;28;20560;-68
2021/06/27 09:45:00;;;;;;;7.90;7.40;;;31.60;42.50;;;;;;5095277;28;20467;-69
2021/06/27 09:47:27;;;;;;;7.50;7.00;;;31.60;42.30;;;;;;5095094;28;20432;-68
2021/06/27 09:49:56;;;;;;;8.40;7.80;;;31.60;41.80;;;;;;5095623;28;20427;-68
2021/06/27 09:52:36;;;;;;;7.57;7.07;;;31.70;40.80;;;;;;5095132;28;20552;-68
2021/06/27 09:55:06;;;;;;;8.03;7.47;;;31.80;40.90;;;;;;5094991;28;20435;-68
2021/06/27 09:57:33;;;;;;;7.97;7.47;;;32.00;40.60;;;;;;5094815;28;20443;-68
2021/06/27 10:00:00;;;;;;;9.03;8.23;;;32.10;40.60;;;;;;5094001;28;20475;-70
2021/06/27 10:02:27;;;;;;;7.90;7.30;;;32.30;40.30;;;;;;5094956;28;20463;-69
2021/06/27 10:04:53;;;;;;;7.90;7.30;;;32.50;39.80;;;;;;5094707;28;20423;-68
2021/06/27 10:07:36;;;;;;;8.10;7.60;;;32.70;38.90;;;;;;5094441;28;20424;-69
2021/06/27 10:10:18;;;;;;;8.00;7.50;;;32.80;37.90;;;;;;5094613;28;20424;-69
2021/06/27 10:12:45;;;;;;;8.80;8.20;;;32.90;38.70;;;;;;5094515;28;20473;-68
2021/06/27 10:15:14;;;;;;;7.83;7.07;;;33.10;37.90;;;;;;5094560;28;20435;-68
2021/06/27 10:17:41;;;;;;;8.10;7.50;;;33.30;37.30;;;;;;5094447;28;20431;-68
2021/06/27 10:20:10;;;;;;;7.20;6.63;;;33.50;36.60;;;;;;5094132;28;20556;-68
2021/06/27 10:22:39;;;;;;;7.13;6.63;;;33.60;36.30;;;;;;5094270;28;20474;-68
2021/06/27 10:25:09;;;;;;;8.20;7.60;;;33.80;35.50;;;;;;5094295;28;20431;-68
2021/06/27 10:27:37;;;;;;;6.80;6.40;;;34.10;35.40;;;;;;5095430;28;20446;-68
2021/06/27 10:30:07;;;;;;;7.90;7.30;;;34.50;35.10;;;;;;5094447;28;20467;-68
2021/06/27 10:32:38;;;;;;;7.80;7.20;;;34.80;34.80;;;;;;5093874;28;20846;-68
2021/06/27 10:35:08;;;;;;;6.87;6.33;;;35.20;33.60;;;;;;5094210;28;20431;-68
2021/06/27 10:37:38;;;;;;;7.00;6.30;;;35.60;33.60;;;;;;5094124;28;20433;-68
2021/06/27 10:40:08;;;;;;;8.03;7.23;;;36.00;33.30;;;;;;5094012;28;20466;-68
2021/06/27 10:42:54;;;;;;;7.47;7.00;;;36.50;31.60;;;;;;5093993;28;20459;-68
2021/06/27 10:45:22;;;;;;;7.53;7.03;;;37.20;29.50;;;;;;5094060;28;20477;-68
2021/06/27 10:47:50;;;;;;;7.50;7.00;;;37.70;29.30;;;;;;5093623;28;20894;-70
2021/06/27 10:50:18;;;;;;;7.00;6.50;;;38.00;27.80;;;;;;5093854;28;20443;-69
2021/06/27 10:53:00;;;;;;;8.30;7.63;;;38.30;28.10;;;;;;5093551;28;20228;-68
2021/06/27 10:55:28;;;;;;;7.30;6.70;;;38.60;28.30;;;;;;5094623;28;20250;-69
2021/06/27 10:58:00;;;;;;;6.30;5.80;;;39.10;27.50;;;;;;5093790;28;20205;-70
2021/06/27 11:00:28;;;;;;;6.43;6.03;;;39.60;28.00;;;;;;5094636;28;20202;-68
2021/06/27 11:03:15;;;;;;;6.03;5.72;;;40.20;26.30;;;;;;5093416;28;20189;-68
2021/06/27 11:05:46;;;;;;;6.25;5.85;;;40.70;24.70;;;;;;5093421;28;20205;-69
2021/06/27 11:08:15;;;;;;;5.82;5.43;;;40.80;23.80;;;;;;5093674;28;20189;-68
2021/06/27 11:10:42;;;;;;;5.72;5.32;;;40.90;23.30;;;;;;5093496;28;20213;-69
2021/06/27 11:13:16;;;;;;;5.43;5.03;;;41.00;23.90;;;;;;5093780;28;20225;-70
2021/06/27 11:16:09;;;;;;;4.55;4.30;;;41.10;23.00;;;;;;5093635;28;20602;-68
2021/06/27 11:18:38;;;;;;;4.95;4.57;;;41.50;23.10;;;;;;5093610;28;20181;-68
2021/06/27 11:21:15;;;;;;;4.75;4.35;;;41.70;23.20;;;;;;5093066;28;20233;-69
2021/06/27 11:23:51;;;;;;;5.07;4.78;;;41.90;22.30;;;;;;5093512;28;20181;-69
2021/06/27 11:26:52;;;;;;;4.90;4.60;;;41.70;22.10;;;;;;5093518;28;20184;-68
2021/06/27 11:29:44;;;;;;;5.30;4.90;;;41.80;22.10;;;;;;5093227;28;20677;-69
2021/06/27 11:32:38;;;;;;;4.55;4.25;;;42.00;21.90;;;;;;5093209;28;20775;-68
2021/06/27 11:35:07;;;;;;;5.10;4.70;;;42.10;21.50;;;;;;5093228;28;20193;-68
2021/06/27 11:37:47;;;;;;;4.93;4.63;;;42.10;21.10;;;;;;5093488;28;20186;-69
2021/06/27 11:40:14;;;;;;;5.45;4.95;;;41.90;21.40;;;;;;5093060;28;20674;-69
2021/06/27 11:42:53;;;;;;;6.10;5.50;;;41.70;21.80;;;;;;5092975;28;20711;-68
2021/06/27 11:45:39;;;;;;;5.25;4.82;;;41.70;21.90;;;;;;5093327;28;20212;-69
2021/06/27 11:48:08;;;;;;;5.40;4.97;;;41.50;22.40;;;;;;5093280;28;20266;-69
2021/06/27 11:50:37;;;;;;;5.93;5.53;;;40.80;23.10;;;;;;5093178;28;20296;-69
2021/06/27 11:53:06;;;;;;;4.63;4.32;;;40.80;23.70;;;;;;5093200;28;20198;-69
2021/06/27 11:55:35;;;;;;;5.03;4.63;;;41.30;23.70;;;;;;5094075;28;20218;-69
2021/06/27 11:58:03;;;;;;;4.90;4.50;;;41.40;22.60;;;;;;5093229;28;20209;-69
2021/06/27 12:00:36;;;;;;;6.18;5.18;;;41.20;22.70;;;;;;5093124;28;20217;-69
2021/06/27 12:03:05;;;;;;;5.13;4.82;;;41.30;22.40;;;;;;5092967;28;20196;-70
2021/06/27 12:05:31;;;;;;;4.97;4.68;;;41.20;22.40;;;;;;5092841;28;20639;-69
2021/06/27 12:08:06;;;;;;;5.13;4.82;;;40.50;22.40;;;;;;5093438;28;20190;-68
2021/06/27 12:10:33;;;;;;;5.68;5.30;;;39.70;24.20;;;;;;5093336;28;20184;-69
2021/06/27 12:13:04;;;;;;;5.70;5.30;;;39.20;25.90;;;;;;5093152;28;20209;-68
2021/06/27 12:15:36;;;;;;;5.43;5.03;;;39.50;24.90;;;;;;5093132;28;20560;-68
2021/06/27 12:18:06;;;;;;;6.35;4.90;;;40.00;24.30;;;;;;5093062;28;20189;-68
2021/06/27 12:20:34;;;;;;;4.90;4.60;;;40.40;24.50;;;;;;5092811;28;20714;-68
2021/06/27 12:23:03;;;;;;;4.40;4.10;;;41.10;23.20;;;;;;5094502;28;20197;-69
2021/06/27 12:25:34;;;;;;;4.30;4.10;;;41.80;21.90;;;;;;5096356;28;20556;-69
2021/06/27 12:28:03;;;;;;;5.20;4.75;;;42.40;21.50;;;;;;5096581;28;20186;-69
2021/06/27 12:30:39;;;;;;;6.85;4.15;;;42.60;20.70;;;;;;5096850;28;20185;-70
2021/06/27 12:33:08;;;;;;;4.80;4.50;;;42.90;20.60;;;;;;5096521;28;20565;-69
2021/06/27 12:35:40;;;;;;;4.55;4.35;;;43.10;20.50;;;;;;5096456;28;20197;-69
2021/06/27 12:38:08;;;;;;;4.60;4.30;;;43.10;20.40;;;;;;5096093;28;20697;-69
2021/06/27 12:40:41;;;;;;;4.78;4.38;;;42.90;20.90;;;;;;5096292;28;20228;-69
2021/06/27 12:43:26;;;;;;;4.50;4.20;;;42.70;20.80;;;;;;5096326;28;20215;-69